createdAt,value
2022-11-09T00:02:00.372Z,57.30
2022-11-09T00:04:30.341Z,56.99
2022-11-09T00:07:00.414Z,56.96
2022-11-09T00:09:30.596Z,57.14
2022-11-09T00:12:19.113Z,56.97
2022-11-09T00:14:49.104Z,57.06
2022-11-09T00:17:19.078Z,56.88
2022-11-09T00:19:49.114Z,57.08
2022-11-09T00:25:04.805Z,56.90
2022-11-09T00:27:34.803Z,56.61
2022-11-09T00:30:05.218Z,56.80
2022-11-09T00:32:35.471Z,56.44
2022-11-09T00:35:06.163Z,56.42
2022-11-09T00:37:54.730Z,56.43
2022-11-09T00:40:24.997Z,56.47
2022-11-09T00:42:55.149Z,56.23
2022-11-09T00:45:43.744Z,56.28
2022-11-09T00:48:14.048Z,55.95
2022-11-09T00:50:45.063Z,55.82
2022-11-09T00:53:15.354Z,55.88
2022-11-09T00:55:45.386Z,55.62
2022-11-09T00:58:15.566Z,55.67
2022-11-09T01:00:46.447Z,55.77
2022-11-09T01:03:17.203Z,55.53
2022-11-09T01:05:47.487Z,55.42
2022-11-09T01:08:20.847Z,55.35
2022-11-09T01:10:51.691Z,55.45
2022-11-09T01:13:25.375Z,55.28
2022-11-09T01:15:56.336Z,55.20
2022-11-09T01:18:26.837Z,55.32
2022-11-09T01:21:16.964Z,55.32
2022-11-09T01:23:47.347Z,55.69
2022-11-09T01:26:18.553Z,55.21
2022-11-09T01:28:49.039Z,55.59
2022-11-09T01:31:21.570Z,55.17
2022-11-09T01:33:51.997Z,55.23
2022-11-09T01:36:26.572Z,55.24
2022-11-09T01:38:56.993Z,55.25
2022-11-09T01:41:31.227Z,55.07
2022-11-09T01:44:20.388Z,55.06
2022-11-09T01:46:56.702Z,54.92
2022-11-09T01:49:43.076Z,54.88
2022-11-09T01:52:37.690Z,55.08
2022-11-09T01:55:14.910Z,54.94
2022-11-09T02:00:51.207Z,54.63
2022-11-09T02:03:28.948Z,54.48
2022-11-09T02:06:00.205Z,54.79
2022-11-09T02:08:30.812Z,54.88
2022-11-09T02:11:16.408Z,54.67
2022-11-09T02:13:50.575Z,54.46
2022-11-09T02:16:21.723Z,55.08
2022-11-09T02:19:05.576Z,54.76
2022-11-09T02:21:36.112Z,54.68
2022-11-09T02:26:54.793Z,54.04
2022-11-09T02:29:34.464Z,54.49
2022-11-09T02:32:11.126Z,54.47
2022-11-09T02:34:41.366Z,54.74
2022-11-09T02:37:39.529Z,54.42
2022-11-09T02:40:25.309Z,54.28
2022-11-09T02:42:57.419Z,54.23
2022-11-09T02:45:27.713Z,54.61
2022-11-09T02:47:58.050Z,54.18
2022-11-09T02:50:30.237Z,54.56
2022-11-09T02:53:01.972Z,54.43
2022-11-09T02:55:34.738Z,54.16
2022-11-09T02:58:05.012Z,53.93
2022-11-09T03:00:35.247Z,54.07
2022-11-09T03:03:06.893Z,54.25
2022-11-09T03:05:37.438Z,54.31
2022-11-09T03:08:26.350Z,54.71
2022-11-09T03:10:56.602Z,54.49
2022-11-09T03:13:27.191Z,54.34
2022-11-09T03:15:57.857Z,54.18
2022-11-09T03:18:46.040Z,54.49
2022-11-09T03:21:16.544Z,53.67
2022-11-09T03:23:47.829Z,53.73
2022-11-09T03:26:18.351Z,53.26
2022-11-09T03:28:49.248Z,53.58
2022-11-09T03:31:19.540Z,53.73
2022-11-09T03:33:52.289Z,53.74
2022-11-09T03:36:23.444Z,54.27
2022-11-09T03:38:53.694Z,54.01
2022-11-09T03:41:24.004Z,53.76
2022-11-09T03:43:54.266Z,53.97
2022-11-09T03:46:24.398Z,53.45
2022-11-09T03:48:54.666Z,53.16
2022-11-09T03:51:24.731Z,53.41
2022-11-09T03:53:54.995Z,53.02
2022-11-09T03:56:25.480Z,52.29
2022-11-09T03:58:55.691Z,51.68
2022-11-09T04:01:44.979Z,52.10
2022-11-09T04:04:33.952Z,52.27
2022-11-09T04:07:04.812Z,52.31
2022-11-09T04:09:35.938Z,52.53
2022-11-09T04:12:07.843Z,52.43
2022-11-09T04:14:38.608Z,52.55
2022-11-09T04:17:09.218Z,52.15
2022-11-09T04:19:39.931Z,52.70
2022-11-09T04:22:11.004Z,52.64
2022-11-09T04:24:41.723Z,52.50
2022-11-09T04:27:12.686Z,52.52
2022-11-09T04:29:43.419Z,52.52
2022-11-09T04:32:14.395Z,52.48
2022-11-09T04:34:45.368Z,52.35
2022-11-09T04:37:16.766Z,52.68
2022-11-09T04:39:47.517Z,52.20
2022-11-09T04:42:18.354Z,52.10
2022-11-09T04:44:48.972Z,51.89
2022-11-09T04:47:19.877Z,52.03
2022-11-09T04:49:50.593Z,51.70
2022-11-09T04:52:21.338Z,51.67
2022-11-09T04:54:52.063Z,51.65
2022-11-09T04:57:22.913Z,51.69
2022-11-09T04:59:53.770Z,51.77
2022-11-09T05:02:24.782Z,51.97
2022-11-09T05:04:55.583Z,51.94
2022-11-09T05:07:26.468Z,51.69
2022-11-09T05:09:57.529Z,51.51
2022-11-09T05:12:28.302Z,51.23
2022-11-09T05:14:59.118Z,51.02
2022-11-09T05:20:16.070Z,51.15
2022-11-09T05:23:04.800Z,50.68
2022-11-09T05:25:53.599Z,51.20
2022-11-09T05:28:24.623Z,50.51
2022-11-09T05:30:55.328Z,50.58
2022-11-09T05:33:26.227Z,50.70
2022-11-09T05:36:00.623Z,51.02
2022-11-09T05:38:31.538Z,51.22
2022-11-09T05:41:02.376Z,51.09
2022-11-09T05:43:51.334Z,51.84
2022-11-09T05:46:22.801Z,51.77
2022-11-09T05:48:53.631Z,51.76
2022-11-09T05:51:24.401Z,52.03
2022-11-09T05:53:55.138Z,52.08
2022-11-09T05:56:26.278Z,51.58
2022-11-09T05:58:57.133Z,51.41
2022-11-09T06:01:28.146Z,51.65
2022-11-09T06:03:58.966Z,51.70
2022-11-09T06:06:30.016Z,51.82
2022-11-09T06:09:00.863Z,52.10
2022-11-09T06:11:31.964Z,51.74
2022-11-09T06:14:02.693Z,52.16
2022-11-09T06:16:33.542Z,52.16
2022-11-09T06:19:04.735Z,52.03
2022-11-09T06:21:53.453Z,52.21
2022-11-09T06:24:24.291Z,51.97
2022-11-09T06:26:55.139Z,52.06
2022-11-09T06:29:25.869Z,51.74
2022-11-09T06:31:56.647Z,51.57
2022-11-09T06:34:27.316Z,51.59
2022-11-09T06:36:58.268Z,51.36
2022-11-09T06:39:29.170Z,50.71
2022-11-09T06:41:59.982Z,50.60
2022-11-09T06:44:30.684Z,50.55
2022-11-09T06:47:01.198Z,51.03
2022-11-09T06:49:31.993Z,50.99
2022-11-09T06:52:02.895Z,50.79
2022-11-09T06:54:35.269Z,50.52
2022-11-09T06:57:06.278Z,50.63
2022-11-09T06:59:37.979Z,51.17
2022-11-09T07:02:09.416Z,51.09
2022-11-09T07:04:39.690Z,50.54
2022-11-09T07:07:10.865Z,51.01
2022-11-09T07:09:41.185Z,50.79
2022-11-09T07:12:13.185Z,51.16
2022-11-09T07:14:44.069Z,51.17
2022-11-09T07:17:14.850Z,51.21
2022-11-09T07:19:45.618Z,50.03
2022-11-09T07:22:16.470Z,49.71
2022-11-09T07:24:47.269Z,49.73
2022-11-09T07:27:18.238Z,49.66
2022-11-09T07:29:49.056Z,50.54
2022-11-09T07:32:20.069Z,50.96
2022-11-09T07:34:50.755Z,49.75
2022-11-09T07:37:21.646Z,50.95
2022-11-09T07:39:52.378Z,50.59
2022-11-09T07:42:23.190Z,51.03
2022-11-09T07:44:53.942Z,50.62
2022-11-09T07:47:24.898Z,50.74
2022-11-09T07:49:55.691Z,50.93
2022-11-09T07:52:26.587Z,51.21
2022-11-09T07:54:57.254Z,51.20
2022-11-09T07:57:28.173Z,50.27
2022-11-09T07:59:59.003Z,50.14
2022-11-09T08:02:29.894Z,50.66
2022-11-09T08:05:00.664Z,50.70
2022-11-09T08:07:31.305Z,49.96
2022-11-09T08:10:02.103Z,50.72
2022-11-09T08:12:36.870Z,50.47
2022-11-09T08:15:09.399Z,50.32
2022-11-09T08:17:40.277Z,49.36
2022-11-09T08:20:11.567Z,49.65
2022-11-09T08:22:46.500Z,50.91
2022-11-09T08:25:17.909Z,50.52
2022-11-09T08:28:10.658Z,49.40
2022-11-09T08:30:44.407Z,49.92
2022-11-09T08:33:16.124Z,50.41
2022-11-09T08:35:53.063Z,50.70
2022-11-09T08:38:24.555Z,50.50
2022-11-09T08:41:01.434Z,50.25
2022-11-09T08:43:32.145Z,50.02
2022-11-09T08:46:20.966Z,50.25
2022-11-09T08:48:51.791Z,50.55
2022-11-09T08:51:40.634Z,50.64
2022-11-09T08:54:14.026Z,50.25
2022-11-09T08:56:44.772Z,50.49
2022-11-09T08:59:15.864Z,50.81
2022-11-09T09:01:46.554Z,50.82
2022-11-09T09:04:17.324Z,50.66
2022-11-09T09:06:48.275Z,50.49
2022-11-09T09:09:19.467Z,51.14
2022-11-09T09:11:50.672Z,50.88
2022-11-09T09:14:21.383Z,51.21
2022-11-09T09:17:10.590Z,51.58
2022-11-09T09:19:43.815Z,51.26
2022-11-09T09:22:18.281Z,51.31
2022-11-09T09:27:35.153Z,51.08
2022-11-09T09:30:06.647Z,51.25
2022-11-09T09:32:37.474Z,51.29
2022-11-09T09:35:26.392Z,50.92
2022-11-09T09:37:57.919Z,51.21
2022-11-09T09:41:01.908Z,50.58
2022-11-09T09:43:45.995Z,51.28
2022-11-09T09:46:19.748Z,51.25
2022-11-09T09:48:59.728Z,51.41
2022-11-09T09:51:35.977Z,51.22
2022-11-09T09:54:18.615Z,51.54
2022-11-09T09:56:52.294Z,51.69
2022-11-09T09:59:42.482Z,51.55
2022-11-09T10:02:33.554Z,51.57
2022-11-09T10:05:09.659Z,51.59
2022-11-09T10:08:06.169Z,51.76
2022-11-09T10:10:51.170Z,51.63
2022-11-09T10:13:59.069Z,51.31
2022-11-09T10:16:49.885Z,51.55
2022-11-09T10:19:35.488Z,51.61
2022-11-09T10:22:18.752Z,51.05
2022-11-09T10:25:50.437Z,51.33
2022-11-09T10:28:20.306Z,51.83
2022-11-09T10:30:52.369Z,51.61
2022-11-09T10:33:24.554Z,51.85
2022-11-09T10:36:24.657Z,51.77
2022-11-09T10:38:59.654Z,51.66
2022-11-09T10:41:49.566Z,51.82
2022-11-09T10:44:38.922Z,51.79
2022-11-09T10:47:29.095Z,51.83
2022-11-09T10:50:35.846Z,51.99
2022-11-09T10:53:27.519Z,51.89
2022-11-09T10:56:23.951Z,51.68
2022-11-09T10:59:40.658Z,51.96
2022-11-09T11:02:29.642Z,51.80
2022-11-09T11:05:30.664Z,52.04
2022-11-09T11:08:33.687Z,51.97
2022-11-09T11:11:36.769Z,51.93
2022-11-09T11:14:35.221Z,51.91
2022-11-09T11:17:37.977Z,52.47
2022-11-09T11:20:30.316Z,52.40
2022-11-09T11:23:28.067Z,52.27
2022-11-09T11:26:31.986Z,52.56
2022-11-09T11:29:55.197Z,52.41
2022-11-09T11:36:13.159Z,52.76
2022-11-09T11:39:46.825Z,52.64
2022-11-09T11:43:02.955Z,52.39
2022-11-09T11:45:57.489Z,52.48
2022-11-09T11:49:04.586Z,52.66
2022-11-09T11:51:56.408Z,52.19
2022-11-09T11:54:53.178Z,52.45
2022-11-09T11:58:07.056Z,52.66
2022-11-09T12:01:06.199Z,52.64
2022-11-09T12:04:41.063Z,52.96
2022-11-09T12:07:42.501Z,53.05
2022-11-09T12:10:49.605Z,52.85
2022-11-09T12:13:49.997Z,53.08
2022-11-09T12:16:57.432Z,53.06
2022-11-09T12:19:49.440Z,52.90
2022-11-09T12:23:15.663Z,52.89
2022-11-09T12:26:43.027Z,52.64
2022-11-09T12:30:00.495Z,52.81
2022-11-09T12:33:16.240Z,52.35
2022-11-09T12:39:43.247Z,52.83
2022-11-09T12:42:47.909Z,53.16
2022-11-09T12:45:38.088Z,53.15
2022-11-09T12:48:32.505Z,53.13
2022-11-09T12:51:22.856Z,53.24
2022-11-09T12:54:14.335Z,53.09
2022-11-09T12:57:09.471Z,53.31
2022-11-09T13:00:03.144Z,53.45
2022-11-09T13:03:02.241Z,53.35
2022-11-09T13:05:52.417Z,53.09
2022-11-09T13:08:43.346Z,53.55
2022-11-09T13:11:49.526Z,53.35
2022-11-09T13:14:41.227Z,53.33
2022-11-09T13:17:30.415Z,53.10
2022-11-09T13:20:54.779Z,53.36
2022-11-09T13:24:00.935Z,53.83
2022-11-09T13:26:51.500Z,53.66
2022-11-09T13:29:43.509Z,53.92
2022-11-09T13:32:36.355Z,53.83
2022-11-09T13:35:43.746Z,53.92
2022-11-09T13:38:34.008Z,53.97
2022-11-09T13:41:35.357Z,53.48
2022-11-09T13:44:37.547Z,53.32
2022-11-09T13:48:58.365Z,53.27
2022-11-09T13:51:51.091Z,53.26
2022-11-09T13:54:46.852Z,53.11
2022-11-09T13:57:36.080Z,53.65
2022-11-09T14:00:28.476Z,53.83
2022-11-09T14:03:27.337Z,53.62
2022-11-09T14:06:16.662Z,53.50
2022-11-09T14:09:07.175Z,53.67
2022-11-09T14:11:56.625Z,53.44
2022-11-09T14:15:04.400Z,53.41
2022-11-09T14:18:04.892Z,53.66
2022-11-09T14:21:17.853Z,53.64
2022-11-09T14:24:15.943Z,53.19
2022-11-09T14:27:19.724Z,53.29
2022-11-09T14:30:27.072Z,53.73
2022-11-09T14:33:32.045Z,53.82
2022-11-09T14:36:21.269Z,53.86
2022-11-09T14:39:40.615Z,54.74
2022-11-09T14:42:30.829Z,54.77
2022-11-09T14:45:20.729Z,54.74
2022-11-09T14:48:19.062Z,54.36
2022-11-09T14:51:16.104Z,55.68
2022-11-09T14:54:06.958Z,54.84
2022-11-09T14:56:58.187Z,55.21
2022-11-09T14:59:48.458Z,55.27
2022-11-09T15:02:37.468Z,55.16
2022-11-09T15:05:37.599Z,56.01
2022-11-09T15:08:26.619Z,56.56
2022-11-09T15:11:15.948Z,56.14
2022-11-09T15:14:25.613Z,56.24
2022-11-09T15:17:20.103Z,55.75
2022-11-09T15:20:12.408Z,55.59
2022-11-09T15:23:49.958Z,55.83
2022-11-09T15:26:50.739Z,55.71
2022-11-09T15:29:47.854Z,55.66
2022-11-09T15:32:41.127Z,55.58
2022-11-09T15:35:30.813Z,55.91
2022-11-09T15:38:33.643Z,55.92
2022-11-09T15:41:24.340Z,55.90
2022-11-09T15:44:17.058Z,56.10
2022-11-09T15:47:06.848Z,56.03
2022-11-09T15:49:55.858Z,56.22
2022-11-09T15:52:48.349Z,55.87
2022-11-09T15:55:37.688Z,56.27
2022-11-09T15:58:27.032Z,55.93
2022-11-09T16:01:16.359Z,55.90
2022-11-09T16:04:05.754Z,55.86
2022-11-09T16:06:54.918Z,55.64
2022-11-09T16:09:45.093Z,55.55
2022-11-09T16:12:34.389Z,55.90
2022-11-09T16:15:23.480Z,55.89
2022-11-09T16:18:13.246Z,56.21
2022-11-09T16:21:17.311Z,56.43
2022-11-09T16:24:06.657Z,56.58
2022-11-09T16:26:57.678Z,56.29
2022-11-09T16:29:47.131Z,56.54
2022-11-09T16:32:36.034Z,56.61
2022-11-09T16:35:27.656Z,56.73
2022-11-09T16:38:18.285Z,56.78
2022-11-09T16:41:08.388Z,57.13
2022-11-09T16:43:59.339Z,57.13
2022-11-09T16:46:50.348Z,57.27
2022-11-09T16:49:39.572Z,56.91
2022-11-09T16:52:28.383Z,57.09
2022-11-09T16:55:18.089Z,57.39
2022-11-09T16:58:07.366Z,57.42
2022-11-09T17:01:10.464Z,57.67
2022-11-09T17:04:00.661Z,57.80
2022-11-09T17:06:49.932Z,58.15
2022-11-09T17:09:39.371Z,58.15
2022-11-09T17:12:28.649Z,58.27
2022-11-09T17:15:17.795Z,58.41
2022-11-09T17:18:07.253Z,58.48
2022-11-09T17:20:55.956Z,58.57
2022-11-09T17:23:45.950Z,58.38
2022-11-09T17:26:36.190Z,58.79
2022-11-09T17:29:27.392Z,58.54
2022-11-09T17:32:16.671Z,58.49
2022-11-09T17:35:05.476Z,58.82
2022-11-09T17:37:56.618Z,58.70
2022-11-09T17:40:45.971Z,58.72
2022-11-09T17:43:36.745Z,58.63
2022-11-09T17:46:25.928Z,58.81
2022-11-09T17:49:15.069Z,58.90
2022-11-09T17:52:04.112Z,58.99
2022-11-09T17:54:53.222Z,59.01
2022-11-09T17:57:42.756Z,59.05
2022-11-09T18:00:31.858Z,58.98
2022-11-09T18:03:21.432Z,59.40
2022-11-09T18:06:25.429Z,59.41
2022-11-09T18:12:23.671Z,59.10
2022-11-09T18:15:12.796Z,59.19
2022-11-09T18:18:02.248Z,59.21
2022-11-09T18:20:51.327Z,58.94
2022-11-09T18:23:40.729Z,59.04
2022-11-09T18:26:29.687Z,59.08
2022-11-09T18:29:19.171Z,58.84
2022-11-09T18:32:08.759Z,58.78
2022-11-09T18:34:58.700Z,59.07
2022-11-09T18:37:51.501Z,59.12
2022-11-09T18:40:40.749Z,58.93
2022-11-09T18:43:29.946Z,58.78
2022-11-09T18:46:21.367Z,58.97
2022-11-09T18:49:14.077Z,58.54
2022-11-09T18:52:03.383Z,58.32
2022-11-09T18:54:52.636Z,58.60
2022-11-09T18:57:41.932Z,58.38
2022-11-09T19:00:30.850Z,58.37
2022-11-09T19:03:19.922Z,58.10
2022-11-09T19:06:11.170Z,57.82
2022-11-09T19:09:18.310Z,57.89
2022-11-09T19:12:10.897Z,57.31
2022-11-09T19:15:00.115Z,57.36
2022-11-09T19:17:48.671Z,57.10
2022-11-09T19:20:41.526Z,57.03
2022-11-09T19:23:34.414Z,56.89
2022-11-09T19:26:27.369Z,56.73
2022-11-09T19:29:17.677Z,56.70
2022-11-09T19:32:06.957Z,56.72
2022-11-09T19:34:55.951Z,56.78
2022-11-09T19:37:45.197Z,56.52
2022-11-09T19:40:39.305Z,56.51
2022-11-09T19:43:28.889Z,56.58
2022-11-09T19:46:18.060Z,56.22
2022-11-09T19:49:08.084Z,56.21
2022-11-09T19:51:58.269Z,56.07
2022-11-09T19:54:47.208Z,56.26
2022-11-09T19:57:36.143Z,55.99
2022-11-09T20:00:25.412Z,55.97
2022-11-09T20:03:14.633Z,56.18
2022-11-09T20:06:04.708Z,56.09
2022-11-09T20:08:54.731Z,55.85
2022-11-09T20:12:02.000Z,55.98
2022-11-09T20:14:50.834Z,56.05
2022-11-09T20:17:39.884Z,56.06
2022-11-09T20:20:28.788Z,56.12
2022-11-09T20:23:21.592Z,56.07
2022-11-09T20:26:14.135Z,55.79
2022-11-09T20:29:03.231Z,56.19
2022-11-09T20:31:52.530Z,56.18
2022-11-09T20:34:41.634Z,56.05
2022-11-09T20:37:30.626Z,56.23
2022-11-09T20:40:19.826Z,56.11
2022-11-09T20:43:08.883Z,56.18
2022-11-09T20:45:59.458Z,56.14
2022-11-09T20:48:56.081Z,56.35
2022-11-09T20:51:45.543Z,55.91
2022-11-09T20:54:34.448Z,56.25
2022-11-09T20:57:24.221Z,55.89
2022-11-09T21:00:14.391Z,56.03
2022-11-09T21:03:03.428Z,55.96
2022-11-09T21:05:59.093Z,56.17
2022-11-09T21:08:53.426Z,56.24
2022-11-09T21:12:02.765Z,56.00
2022-11-09T21:14:51.912Z,55.88
2022-11-09T21:17:41.281Z,56.03
2022-11-09T21:20:30.688Z,55.83
2022-11-09T21:23:19.772Z,55.93
2022-11-09T21:26:27.080Z,56.09
2022-11-09T21:29:37.148Z,56.21
2022-11-09T21:32:27.253Z,56.17
2022-11-09T21:35:16.413Z,56.09
2022-11-09T21:38:05.857Z,56.07
2022-11-09T21:40:54.976Z,56.12
2022-11-09T21:43:44.271Z,56.15
2022-11-09T21:46:33.961Z,56.24
2022-11-09T21:49:22.830Z,56.15
2022-11-09T21:52:11.687Z,56.44
2022-11-09T21:55:00.811Z,56.11
2022-11-09T21:57:51.848Z,56.34
2022-11-09T22:00:41.230Z,56.36
2022-11-09T22:03:30.378Z,56.16
2022-11-09T22:06:20.185Z,56.42
2022-11-09T22:09:11.108Z,56.16
2022-11-09T22:12:18.306Z,56.52
2022-11-09T22:15:26.351Z,56.40
2022-11-09T22:18:35.401Z,56.29
2022-11-09T22:21:27.244Z,56.56
2022-11-09T22:24:16.318Z,56.88
2022-11-09T22:27:05.404Z,57.04
2022-11-09T22:29:54.685Z,56.64
2022-11-09T22:32:43.804Z,57.00
2022-11-09T22:35:33.098Z,57.05
2022-11-09T22:38:22.069Z,57.12
2022-11-09T22:43:24.574Z,56.71
2022-11-09T22:46:19.841Z,56.59
2022-11-09T22:49:09.455Z,56.82
2022-11-09T22:51:58.765Z,56.72
2022-11-09T22:54:47.802Z,56.68
2022-11-09T22:57:39.770Z,56.38
2022-11-09T23:00:28.807Z,56.45
2022-11-09T23:03:18.807Z,56.59
2022-11-09T23:06:10.893Z,56.16
2022-11-09T23:08:59.972Z,56.27
2022-11-09T23:11:48.914Z,56.03
2022-11-09T23:14:56.484Z,56.51
2022-11-09T23:18:03.621Z,56.48
2022-11-09T23:20:53.175Z,56.31
2022-11-09T23:23:42.662Z,56.32
2022-11-09T23:26:33.286Z,56.30
2022-11-09T23:29:22.253Z,56.23
2022-11-09T23:32:11.165Z,56.07
2022-11-09T23:35:00.196Z,56.13
2022-11-09T23:37:49.454Z,56.15
2022-11-09T23:43:48.656Z,56.25
2022-11-09T23:46:38.324Z,55.97
2022-11-09T23:49:27.507Z,56.16
2022-11-09T23:52:16.456Z,55.96
2022-11-09T23:55:05.511Z,55.99
2022-11-09T23:57:54.930Z,55.61
